Time;durP1;ratioP1;P1;durP2;ratioP2;P2;SDS_P1;SDS_P2;PMS_P1;PMS_P2;Temp;Humidity;BMP_temperature;BMP_pressure;BME280_temperature;BME280_humidity;BME280_pressure;Samples;Min_cycle;Max_cycle;Signal;HPM_P1;HPM_P2
2023/01/18 00:01:39;;;;;;;9.63;6.78;;;1.20;79.50;;;;;;5016546;28;20025;-60
2023/01/18 00:04:05;;;;;;;9.32;6.68;;;1.20;79.50;;;;;;5017470;28;20044;-61
2023/01/18 00:06:31;;;;;;;10.68;6.50;;;1.10;79.70;;;;;;5023335;28;20475;-61
2023/01/18 00:08:56;;;;;;;11.05;7.00;;;1.10;79.80;;;;;;5021153;28;20034;-61
2023/01/18 00:11:22;;;;;;;9.05;6.63;;;1.10;79.80;;;;;;5022797;28;20029;-61
2023/01/18 00:13:47;;;;;;;9.25;6.68;;;1.10;79.90;;;;;;5020109;28;20038;-60
2023/01/18 00:16:18;;;;;;;9.40;7.00;;;1.20;80.00;;;;;;5024753;28;20401;-59
2023/01/18 00:18:53;;;;;;;10.43;6.82;;;1.20;80.00;;;;;;5015585;28;20483;-61
2023/01/18 00:21:19;;;;;;;;;;;1.20;80.20;;;;;;5018140;28;20056;-60
2023/01/18 00:23:44;;;;;;;8.43;6.53;;;1.20;80.70;;;;;;5017444;28;20368;-58
2023/01/18 00:26:11;;;;;;;9.68;6.78;;;1.20;79.90;;;;;;5020589;28;20480;-59
2023/01/18 00:28:39;;;;;;;9.30;6.90;;;1.20;80.20;;;;;;5019248;28;20042;-61
2023/01/18 00:31:19;;;;;;;9.25;6.68;;;1.20;80.30;;;;;;5019737;28;20512;-60
2023/01/18 00:33:47;;;;;;;8.32;6.45;;;1.20;80.40;;;;;;5018011;28;20034;-60
2023/01/18 00:36:13;;;;;;;8.98;6.95;;;1.20;80.20;;;;;;5017065;28;20041;-61
2023/01/18 00:38:39;;;;;;;9.18;6.82;;;1.10;80.30;;;;;;5016005;28;20123;-62
2023/01/18 00:41:05;;;;;;;9.27;6.88;;;1.20;80.70;;;;;;5016443;28;20116;-62
2023/01/18 00:43:39;;;;;;;9.20;7.05;;;1.20;80.90;;;;;;5021016;28;20124;-60
2023/01/18 00:46:14;;;;;;;11.30;7.45;;;1.20;80.90;;;;;;5026625;28;20112;-61
2023/01/18 00:48:41;;;;;;;9.00;6.75;;;1.20;81.00;;;;;;5019957;28;20095;-60
2023/01/18 00:51:09;;;;;;;10.40;7.35;;;1.30;80.70;;;;;;5023160;28;20262;-62
2023/01/18 00:53:36;;;;;;;11.20;7.57;;;1.30;80.60;;;;;;5020146;28;20033;-61
2023/01/18 00:56:03;;;;;;;12.82;8.35;;;1.30;80.40;;;;;;5026922;28;20124;-61
2023/01/18 00:58:29;;;;;;;11.95;8.43;;;1.30;80.40;;;;;;5025211;28;20048;-60
2023/01/18 01:00:55;;;;;;;14.57;8.52;;;1.30;80.60;;;;;;5022487;28;20029;-60
2023/01/18 01:03:21;;;;;;;16.00;8.73;;;1.30;80.50;;;;;;5037190;28;20041;-61
2023/01/18 01:08:31;;;;;;;14.77;8.60;;;1.30;80.10;;;;;;5023559;28;20333;-57
2023/01/18 01:11:09;;;;;;;12.70;8.27;;;1.20;80.00;;;;;;5013627;28;20419;-60
2023/01/18 01:27:17;;;;;;;13.40;8.20;;;1.10;80.50;;;;;;5024892;28;20033;-62
2023/01/18 01:29:42;;;;;;;11.98;8.68;;;1.10;80.30;;;;;;5024440;28;20034;-61
2023/01/18 01:32:08;;;;;;;11.98;8.52;;;1.10;80.30;;;;;;5021969;28;20033;-59
2023/01/18 01:34:34;;;;;;;10.20;7.53;;;1.10;80.20;;;;;;5017759;28;20037;-61
2023/01/18 01:37:01;;;;;;;12.65;8.38;;;1.10;80.20;;;;;;5020918;28;20025;-59
2023/01/18 01:39:26;;;;;;;10.88;7.55;;;1.10;80.50;;;;;;5020284;28;20101;-58
2023/01/18 01:41:52;;;;;;;11.18;7.82;;;1.10;81.60;;;;;;5021587;28;20041;-62
2023/01/18 01:44:18;;;;;;;12.70;8.48;;;1.20;80.90;;;;;;5024630;28;20037;-61
2023/01/18 01:46:55;;;;;;;12.38;8.15;;;1.20;81.30;;;;;;5021952;28;20032;-60
2023/01/18 01:49:31;;;;;;;10.57;7.32;;;1.20;81.80;;;;;;5022672;28;20312;-60
2023/01/18 01:52:09;;;;;;;11.75;7.28;;;1.30;82.00;;;;;;5021722;28;20100;-61
2023/01/18 01:54:39;;;;;;;10.82;7.80;;;1.30;82.20;;;;;;5022200;28;20040;-60
2023/01/18 01:57:29;;;;;;;12.02;8.43;;;1.30;82.00;;;;;;5025524;28;20491;-58
2023/01/18 02:00:04;;;;;;;10.52;7.07;;;1.40;81.90;;;;;;5025271;28;20034;-59
2023/01/18 02:02:31;;;;;;;10.68;7.78;;;1.40;81.50;;;;;;5018189;28;20037;-59
2023/01/18 02:04:59;;;;;;;11.32;7.55;;;1.40;81.20;;;;;;5018266;28;20033;-58
2023/01/18 02:07:27;;;;;;;12.50;8.23;;;1.40;81.10;;;;;;5022679;28;20030;-58
2023/01/18 02:09:56;;;;;;;12.20;7.93;;;1.40;81.00;;;;;;5018093;28;20030;-60
2023/01/18 02:12:22;;;;;;;12.13;8.20;;;1.40;80.90;;;;;;5014242;28;20504;-60
2023/01/18 02:14:47;;;;;;;10.80;7.65;;;1.40;81.10;;;;;;5023329;28;20533;-61
2023/01/18 02:17:30;;;;;;;12.63;7.82;;;1.30;81.30;;;;;;5024982;28;20041;-62
2023/01/18 02:20:36;;;;;;;9.85;7.18;;;1.30;81.90;;;;;;5019737;28;20030;-60
2023/01/18 02:23:14;;;;;;;10.65;7.53;;;1.30;82.10;;;;;;5020906;28;20065;-59
2023/01/18 02:25:54;;;;;;;9.80;7.32;;;1.30;81.80;;;;;;5018325;28;20043;-61
2023/01/18 02:28:27;;;;;;;10.15;7.00;;;1.30;81.80;;;;;;5022111;28;20532;-57
2023/01/18 02:30:58;;;;;;;10.82;7.63;;;1.30;81.40;;;;;;5021171;28;20124;-59
2023/01/18 02:33:34;;;;;;;10.27;6.95;;;1.30;81.40;;;;;;5017189;28;20033;-57
2023/01/18 02:36:01;;;;;;;10.18;7.03;;;1.30;81.10;;;;;;5024726;28;20042;-60
2023/01/18 02:38:38;;;;;;;13.40;8.13;;;1.30;81.00;;;;;;5018954;28;20041;-58
2023/01/18 02:46:29;;;;;;;15.02;8.60;;;1.20;81.20;;;;;;5018175;28;20049;-61
2023/01/18 02:47:04;;;;;;;17.75;9.55;;;1.20;81.40;;;;;;5024480;28;20091;-59
2023/01/18 02:49:31;;;;;;;17.88;9.05;;;1.20;81.30;;;;;;5020074;28;20128;-60
2023/01/18 02:52:04;;;;;;;17.65;8.55;;;1.20;81.30;;;;;;5036931;28;20033;-60
2023/01/18 02:54:34;;;;;;;14.80;8.73;;;1.20;81.30;;;;;;5021178;28;20527;-61
2023/01/18 02:57:04;;;;;;;13.70;8.27;;;1.20;81.30;;;;;;5024213;28;20453;-60
2023/01/18 02:59:41;;;;;;;12.02;7.90;;;1.20;81.10;;;;;;5018070;28;20042;-60
2023/01/18 03:02:18;;;;;;;13.32;8.38;;;1.20;80.90;;;;;;5021111;28;20057;-61
2023/01/18 03:04:55;;;;;;;8.88;6.50;;;1.20;80.90;;;;;;5017720;28;20033;-60
2023/01/18 03:07:49;;;;;;;7.78;5.78;;;1.20;81.10;;;;;;5018412;28;20512;-60
2023/01/18 03:10:15;;;;;;;7.30;5.57;;;1.20;82.10;;;;;;4996519;28;20496;-61
2023/01/18 03:13:14;;;;;;;7.28;5.00;;;1.20;82.00;;;;;;5015983;28;20041;-60
2023/01/18 03:15:45;;;;;;;7.25;5.18;;;1.20;82.60;;;;;;5019601;28;20117;-61
2023/01/18 03:18:20;;;;;;;5.55;4.57;;;1.30;82.80;;;;;;5022589;28;20461;-59
2023/01/18 03:20:51;;;;;;;6.28;4.80;;;1.40;83.10;;;;;;5021942;28;20413;-60
2023/01/18 03:23:39;;;;;;;5.22;4.25;;;1.40;83.60;;;;;;5017594;28;20072;-60
2023/01/18 03:26:07;;;;;;;6.00;4.28;;;1.50;83.80;;;;;;5022355;28;20057;-60
2023/01/18 03:34:51;;;;;;;6.13;4.05;;;1.70;84.30;;;;;;5017179;28;20075;-61
2023/01/18 03:37:22;;;;;;;6.43;4.25;;;1.80;85.10;;;;;;5011323;28;20033;-60
2023/01/18 03:40:02;;;;;;;4.97;3.92;;;1.90;84.40;;;;;;5032194;28;20029;-61
2023/01/18 03:42:32;;;;;;;5.15;4.13;;;1.90;84.70;;;;;;5017827;28;20038;-60
2023/01/18 03:45:21;;;;;;;5.38;4.40;;;2.00;84.50;;;;;;5019185;28;20049;-60
2023/01/18 03:47:49;;;;;;;4.50;3.90;;;2.10;85.00;;;;;;5021775;28;20037;-59
2023/01/18 03:50:15;;;;;;;5.80;3.92;;;2.20;84.50;;;;;;5019719;28;20049;-61
2023/01/18 03:52:43;;;;;;;5.20;4.25;;;2.20;84.40;;;;;;5020522;28;20403;-61
2023/01/18 03:55:43;;;;;;;6.57;4.63;;;2.30;84.60;;;;;;5018109;28;20034;-62
2023/01/18 03:58:11;;;;;;;5.95;4.68;;;2.40;85.30;;;;;;4995896;28;20561;-61
2023/01/18 04:00:38;;;;;;;5.90;4.70;;;2.40;84.30;;;;;;5020781;28;20040;-61
2023/01/18 04:03:04;;;;;;;7.28;4.85;;;2.50;84.40;;;;;;5019369;28;20543;-61
2023/01/18 04:05:30;;;;;;;6.47;4.80;;;2.50;84.30;;;;;;5022726;28;20046;-57
2023/01/18 04:07:56;;;;;;;6.72;4.70;;;2.40;84.20;;;;;;5015455;28;20022;-61
2023/01/18 04:10:22;;;;;;;5.80;4.68;;;2.60;84.20;;;;;;5015041;28;20455;-61
2023/01/18 04:12:47;;;;;;;5.60;4.75;;;2.70;84.20;;;;;;5014047;28;20033;-61
2023/01/18 04:15:13;;;;;;;5.85;4.75;;;2.70;84.30;;;;;;5019067;28;20072;-61
2023/01/18 04:17:39;;;;;;;6.47;4.60;;;2.80;84.20;;;;;;5021006;28;20033;-60
2023/01/18 04:20:05;;;;;;;6.22;4.60;;;2.80;84.00;;;;;;5023875;28;20037;-60
2023/01/18 04:22:30;;;;;;;6.70;4.68;;;2.90;83.90;;;;;;5024916;28;20037;-61
2023/01/18 04:24:56;;;;;;;6.57;5.05;;;2.90;83.70;;;;;;5034338;28;20044;-58
2023/01/18 04:27:23;;;;;;;6.75;5.32;;;2.90;83.60;;;;;;5022529;28;20042;-61
2023/01/18 04:29:49;;;;;;;6.18;4.78;;;3.00;83.60;;;;;;5025347;28;20544;-59
2023/01/18 04:32:15;;;;;;;5.70;4.50;;;3.00;83.50;;;;;;5019649;28;20558;-58
2023/01/18 04:34:41;;;;;;;6.25;4.50;;;3.00;83.50;;;;;;5023534;28;20030;-61
2023/01/18 04:37:06;;;;;;;5.93;4.15;;;3.00;83.50;;;;;;5023660;28;20029;-60
2023/01/18 04:39:32;;;;;;;5.95;4.55;;;3.10;83.50;;;;;;5023424;28;20175;-60
2023/01/18 04:41:57;;;;;;;5.30;4.43;;;3.10;83.30;;;;;;5034193;28;20044;-60
2023/01/18 04:44:23;;;;;;;6.25;4.88;;;3.10;83.30;;;;;;5022651;28;20162;-57
2023/01/18 04:46:49;;;;;;;6.10;4.95;;;3.10;83.20;;;;;;5019910;28;20030;-59
2023/01/18 04:49:16;;;;;;;6.68;5.18;;;3.20;83.20;;;;;;5023771;28;20030;-61
2023/01/18 04:51:43;;;;;;;7.13;5.50;;;3.20;83.20;;;;;;5021451;28;20030;-61
2023/01/18 04:54:11;;;;;;;7.38;5.68;;;3.20;83.20;;;;;;5024187;28;20087;-59
2023/01/18 04:56:37;;;;;;;8.38;6.22;;;3.20;84.00;;;;;;5019557;28;20038;-61
2023/01/18 04:59:03;;;;;;;9.48;7.30;;;3.20;83.20;;;;;;5023065;28;20033;-59
2023/01/18 05:01:28;;;;;;;11.90;7.30;;;3.20;83.20;;;;;;5020255;28;20108;-60
2023/01/18 05:03:55;;;;;;;11.75;7.63;;;3.20;83.00;;;;;;5022399;28;20065;-59
2023/01/18 05:06:21;;;;;;;11.00;8.13;;;3.30;83.20;;;;;;5019684;28;20073;-60
2023/01/18 05:08:47;;;;;;;10.93;7.72;;;3.30;83.10;;;;;;5020673;28;20431;-58
2023/01/18 05:11:15;;;;;;;12.93;8.30;;;3.30;83.20;;;;;;5016126;28;20041;-61
2023/01/18 05:13:41;;;;;;;12.07;7.90;;;3.20;83.20;;;;;;5024622;28;20044;-62
2023/01/18 05:16:11;;;;;;;13.25;9.23;;;3.20;83.20;;;;;;5022449;28;20661;-62
2023/01/18 05:18:37;;;;;;;11.02;8.13;;;3.20;83.20;;;;;;5023307;28;20041;-61
2023/01/18 05:21:02;;;;;;;12.73;8.68;;;3.30;83.30;;;;;;5024380;28;20087;-62
2023/01/18 05:23:28;;;;;;;11.02;7.38;;;3.30;83.30;;;;;;5024020;28;20041;-60
2023/01/18 05:25:55;;;;;;;10.90;7.95;;;3.30;83.30;;;;;;5019685;28;20096;-60
2023/01/18 05:28:23;;;;;;;11.45;7.57;;;3.30;83.20;;;;;;5021742;28;20563;-59
2023/01/18 05:30:49;;;;;;;11.75;8.05;;;3.30;83.20;;;;;;5014638;28;21955;-61
2023/01/18 05:33:16;;;;;;;10.18;7.10;;;3.30;83.10;;;;;;5019401;28;20033;-60
2023/01/18 05:35:49;;;;;;;9.43;7.55;;;3.30;84.00;;;;;;5024790;28;20041;-61
2023/01/18 05:38:16;;;;;;;10.00;6.23;;;3.30;83.20;;;;;;5026075;28;20037;-57
2023/01/18 05:40:51;;;;;;;7.93;6.15;;;3.30;83.00;;;;;;5026696;28;20508;-60
2023/01/18 05:43:18;;;;;;;9.65;6.18;;;3.30;83.00;;;;;;5026832;28;20482;-61
2023/01/18 05:45:43;;;;;;;10.27;5.65;;;3.30;83.00;;;;;;5027796;28;20144;-59
2023/01/18 05:48:10;;;;;;;7.65;5.75;;;3.30;83.00;;;;;;5027428;28;20455;-58
2023/01/18 05:50:42;;;;;;;7.20;5.40;;;3.30;83.10;;;;;;5023875;28;20053;-58
2023/01/18 05:53:08;;;;;;;6.22;4.78;;;3.30;83.00;;;;;;5027061;28;20420;-60
2023/01/18 05:55:34;;;;;;;5.85;4.78;;;3.30;83.00;;;;;;5026357;28;20503;-59
2023/01/18 05:57:59;;;;;;;7.15;5.35;;;3.40;82.90;;;;;;5026569;28;20436;-59
2023/01/18 06:00:25;;;;;;;7.57;5.13;;;3.40;82.90;;;;;;5026266;28;20273;-59
2023/01/18 06:02:52;;;;;;;6.68;4.90;;;3.30;83.00;;;;;;5025912;28;20400;-61
2023/01/18 06:05:18;;;;;;;6.13;4.90;;;3.30;83.80;;;;;;5025471;28;20029;-59
2023/01/18 06:07:43;;;;;;;7.00;4.43;;;3.40;83.00;;;;;;5027106;28;20040;-60
2023/01/18 06:10:09;;;;;;;6.50;4.63;;;3.40;83.10;;;;;;5025355;28;20559;-61
2023/01/18 06:12:35;;;;;;;4.97;4.18;;;3.40;83.00;;;;;;5022740;28;20523;-57
2023/01/18 06:15:01;;;;;;;5.40;4.28;;;3.40;83.00;;;;;;5027115;28;20033;-60
2023/01/18 06:17:26;;;;;;;5.47;4.20;;;3.40;83.00;;;;;;5026873;28;20037;-57
2023/01/18 06:19:52;;;;;;;4.30;3.90;;;3.40;83.00;;;;;;5026274;28;20164;-59
2023/01/18 06:22:18;;;;;;;4.93;4.15;;;3.40;82.90;;;;;;5026361;28;20036;-59
2023/01/18 06:24:43;;;;;;;6.55;4.38;;;3.40;83.00;;;;;;5025136;28;20139;-60
2023/01/18 06:27:09;;;;;;;5.60;3.65;;;3.40;82.90;;;;;;5026176;28;20038;-59
2023/01/18 06:29:34;;;;;;;5.55;3.95;;;3.40;82.90;;;;;;5025528;28;20102;-61
2023/01/18 06:32:00;;;;;;;3.97;3.47;;;3.40;83.00;;;;;;5024037;28;20056;-60
2023/01/18 06:34:26;;;;;;;5.30;3.60;;;3.40;83.10;;;;;;5025627;28;20037;-57
2023/01/18 06:36:51;;;;;;;4.18;2.95;;;3.40;83.00;;;;;;5026094;28;20514;-61
2023/01/18 06:39:17;;;;;;;7.93;3.50;;;3.40;83.10;;;;;;5024912;28;20124;-60
2023/01/18 06:41:43;;;;;;;3.85;3.45;;;3.40;83.30;;;;;;5025198;28;20037;-61
2023/01/18 06:44:08;;;;;;;4.00;2.95;;;3.40;83.30;;;;;;5023932;28;20125;-60
2023/01/18 06:46:34;;;;;;;3.40;3.05;;;3.40;83.30;;;;;;5025461;28;20492;-60
2023/01/18 06:48:59;;;;;;;4.03;2.75;;;3.40;83.40;;;;;;5026845;28;20022;-61
2023/01/18 06:51:25;;;;;;;4.07;3.28;;;3.40;83.30;;;;;;5024950;28;20091;-60
2023/01/18 06:53:51;;;;;;;4.80;2.90;;;3.40;83.30;;;;;;5025488;28;20083;-60
2023/01/18 06:56:16;;;;;;;3.15;2.85;;;3.40;83.30;;;;;;5026266;28;20041;-60
2023/01/18 06:58:43;;;;;;;3.33;2.72;;;3.40;83.40;;;;;;5024543;28;20431;-60
2023/01/18 07:01:09;;;;;;;3.33;2.95;;;3.40;83.30;;;;;;5025831;28;20068;-57
2023/01/18 07:03:35;;;;;;;4.13;2.97;;;3.40;83.30;;;;;;5024357;28;20038;-57
2023/01/18 07:06:03;;;;;;;2.72;2.53;;;3.40;83.50;;;;;;5022890;28;20228;-61
2023/01/18 07:08:30;;;;;;;5.25;3.25;;;3.40;83.50;;;;;;5024989;28;20500;-61
2023/01/18 07:10:56;;;;;;;3.42;3.08;;;3.40;83.50;;;;;;5025249;28;20038;-62
2023/01/18 07:13:22;;;;;;;4.43;3.47;;;3.50;83.50;;;;;;5024912;28;20114;-61
2023/01/18 07:15:58;;;;;;;3.70;3.10;;;3.40;83.50;;;;;;5024560;28;20274;-58
2023/01/18 07:18:24;;;;;;;3.80;3.40;;;3.50;83.80;;;;;;5023998;28;20083;-60
2023/01/18 07:21:08;;;;;;;3.75;3.38;;;3.50;83.70;;;;;;5025018;28;20451;-60
2023/01/18 07:23:37;;;;;;;3.30;3.00;;;3.50;84.50;;;;;;5025128;28;20641;-59
2023/01/18 07:26:07;;;;;;;2.35;2.10;;;3.50;84.20;;;;;;5025790;28;20040;-60
2023/01/18 07:28:34;;;;;;;1.40;1.30;;;3.40;84.00;;;;;;5023690;28;20057;-60
2023/01/18 07:31:00;;;;;;;1.20;1.10;;;3.40;84.00;;;;;;5023281;28;20029;-60
2023/01/18 07:33:27;;;;;;;1.60;1.50;;;3.30;84.10;;;;;;5025910;28;20629;-60
2023/01/18 07:35:54;;;;;;;2.10;1.90;;;3.20;84.00;;;;;;5024829;28;20041;-61
2023/01/18 07:38:21;;;;;;;1.83;1.73;;;3.20;84.20;;;;;;5024384;28;20180;-60
2023/01/18 07:40:47;;;;;;;3.53;2.08;;;3.10;84.20;;;;;;5024087;28;20049;-61
2023/01/18 07:43:14;;;;;;;2.15;1.92;;;3.10;84.50;;;;;;5023960;28;20048;-59
2023/01/18 07:45:39;;;;;;;2.42;2.05;;;3.00;84.50;;;;;;5025083;28;20041;-60
2023/01/18 07:48:05;;;;;;;4.30;2.40;;;3.00;84.90;;;;;;5024971;28;20037;-60
2023/01/18 07:50:32;;;;;;;4.75;2.45;;;2.90;84.90;;;;;;5023639;28;20037;-61
2023/01/18 07:53:03;;;;;;;2.30;2.10;;;2.90;84.90;;;;;;5024416;28;20421;-60
2023/01/18 07:55:30;;;;;;;4.45;2.50;;;2.90;85.00;;;;;;5025541;28;20337;-60
2023/01/18 07:57:56;;;;;;;3.20;2.83;;;2.90;85.00;;;;;;5023784;28;20109;-60
2023/01/18 08:00:21;;;;;;;2.63;2.42;;;2.90;84.80;;;;;;5024477;28;20121;-60
2023/01/18 08:02:49;;;;;;;4.63;3.03;;;2.90;84.80;;;;;;5023089;28;20041;-58
2023/01/18 08:05:17;;;;;;;3.63;3.10;;;2.90;84.70;;;;;;5024214;28;20239;-59
2023/01/18 08:07:42;;;;;;;4.20;3.50;;;2.80;84.60;;;;;;5025097;28;20300;-59
2023/01/18 08:10:08;;;;;;;5.88;3.88;;;2.80;84.40;;;;;;5022907;28;20651;-59
2023/01/18 08:12:34;;;;;;;5.93;4.43;;;2.80;84.30;;;;;;5022416;28;20042;-60
2023/01/18 08:15:00;;;;;;;7.03;4.97;;;2.90;84.30;;;;;;5024371;28;20043;-61
2023/01/18 08:17:26;;;;;;;4.90;3.75;;;2.90;84.10;;;;;;5023921;28;20513;-58
2023/01/18 08:19:52;;;;;;;5.18;3.63;;;2.90;83.80;;;;;;5025122;28;20037;-60
2023/01/18 08:22:17;;;;;;;5.45;3.95;;;2.90;83.50;;;;;;5025196;28;20040;-58
2023/01/18 08:24:43;;;;;;;5.28;3.78;;;2.90;83.40;;;;;;5022494;28;20042;-58
2023/01/18 08:27:08;;;;;;;4.55;4.00;;;2.90;83.10;;;;;;5025655;28;20479;-58
2023/01/18 08:29:35;;;;;;;3.90;3.20;;;2.90;83.00;;;;;;5023917;28;20063;-59
2023/01/18 08:32:01;;;;;;;4.57;3.30;;;2.80;82.80;;;;;;5024843;28;20532;-57
2023/01/18 08:34:26;;;;;;;4.43;3.80;;;2.80;82.60;;;;;;5023427;28;20045;-58
2023/01/18 08:36:52;;;;;;;3.17;2.85;;;2.80;82.50;;;;;;5023606;28;20029;-59
2023/01/18 08:39:17;;;;;;;3.20;2.72;;;2.80;82.20;;;;;;5024212;28;20033;-56
2023/01/18 08:41:45;;;;;;;4.20;3.05;;;2.80;82.20;;;;;;5024683;28;20597;-61
2023/01/18 08:44:11;;;;;;;4.22;3.60;;;2.80;82.20;;;;;;5023152;28;20432;-59
2023/01/18 08:46:36;;;;;;;3.60;3.00;;;2.80;82.10;;;;;;5024025;28;20033;-58
2023/01/18 08:49:04;;;;;;;4.45;3.53;;;2.70;82.10;;;;;;5025131;28;20115;-58
2023/01/18 08:51:30;;;;;;;10.27;3.45;;;2.80;82.10;;;;;;5023430;28;20431;-58
2023/01/18 08:53:57;;;;;;;4.43;3.28;;;2.70;82.00;;;;;;5023776;28;20441;-59
2023/01/18 08:56:23;;;;;;;3.25;2.90;;;2.80;81.90;;;;;;5024474;28;20041;-59
2023/01/18 08:58:50;;;;;;;4.38;2.97;;;2.70;81.70;;;;;;5023997;28;20083;-61
2023/01/18 09:01:17;;;;;;;5.32;2.95;;;2.70;81.60;;;;;;5021504;28;20034;-59
2023/01/18 09:03:43;;;;;;;7.32;4.90;;;2.80;81.80;;;;;;5024794;28;20136;-61
2023/01/18 09:06:09;;;;;;;4.65;3.70;;;2.70;81.70;;;;;;5028934;28;20038;-61
2023/01/18 09:08:35;;;;;;;4.45;3.20;;;2.70;81.60;;;;;;5026417;28;20086;-60
2023/01/18 09:11:06;;;;;;;3.85;3.08;;;2.70;81.70;;;;;;5027346;28;20037;-60
2023/01/18 09:13:32;;;;;;;5.28;3.60;;;2.70;81.80;;;;;;5028261;28;20068;-61
2023/01/18 09:16:03;;;;;;;4.20;3.00;;;2.70;81.80;;;;;;5026558;28;20037;-61
2023/01/18 09:18:29;;;;;;;2.97;2.67;;;2.70;81.90;;;;;;5027990;28;20415;-61
2023/01/18 09:20:56;;;;;;;3.13;2.90;;;2.70;81.90;;;;;;5028082;28;20037;-61
2023/01/18 09:23:22;;;;;;;4.22;3.50;;;2.70;82.00;;;;;;5028737;28;20061;-60
2023/01/18 09:25:59;;;;;;;4.68;3.65;;;2.70;81.90;;;;;;5028750;28;20103;-60
2023/01/18 09:28:24;;;;;;;3.38;2.92;;;2.70;81.90;;;;;;5027851;28;20029;-60
2023/01/18 09:30:50;;;;;;;3.65;2.80;;;2.70;82.00;;;;;;5027867;28;20029;-61
2023/01/18 09:33:15;;;;;;;3.42;2.90;;;2.70;82.00;;;;;;5028055;28;20034;-60
2023/01/18 09:35:41;;;;;;;5.50;2.80;;;2.70;81.90;;;;;;5028293;28;20034;-58
2023/01/18 09:38:08;;;;;;;2.45;2.25;;;2.70;81.80;;;;;;5027521;28;20511;-58
2023/01/18 09:40:44;;;;;;;4.07;2.78;;;2.70;81.70;;;;;;5027308;28;20042;-58
2023/01/18 09:43:33;;;;;;;3.55;2.72;;;2.70;81.40;;;;;;5027354;28;20033;-58
2023/01/18 09:46:00;;;;;;;3.00;2.65;;;2.80;81.30;;;;;;5027108;28;20397;-60
2023/01/18 09:48:31;;;;;;;2.78;2.47;;;2.80;81.10;;;;;;5027730;28;20489;-59
2023/01/18 09:51:08;;;;;;;2.15;1.92;;;2.70;80.70;;;;;;5027565;28;20041;-60
2023/01/18 09:53:56;;;;;;;4.03;2.70;;;2.70;80.70;;;;;;5028245;28;20041;-58
2023/01/18 09:56:29;;;;;;;3.95;2.25;;;2.70;80.60;;;;;;5025764;28;20112;-58
2023/01/18 09:59:16;;;;;;;3.03;2.30;;;2.70;80.70;;;;;;5028974;28;20033;-59
2023/01/18 10:01:42;;;;;;;3.55;2.58;;;2.70;80.60;;;;;;5027913;28;20034;-59
2023/01/18 10:04:31;;;;;;;3.38;2.70;;;2.70;80.70;;;;;;5026800;28;20107;-58
2023/01/18 10:07:04;;;;;;;3.13;2.30;;;2.80;80.60;;;;;;5026801;28;20037;-59
2023/01/18 10:09:43;;;;;;;2.58;1.65;;;2.80;80.70;;;;;;5028404;28;20034;-60
2023/01/18 10:12:16;;;;;;;2.10;1.90;;;2.80;80.60;;;;;;5027366;28;20490;-59
2023/01/18 10:14:53;;;;;;;2.65;2.00;;;2.80;80.50;;;;;;5025706;28;20037;-58
2023/01/18 10:17:22;;;;;;;2.50;2.20;;;2.80;80.20;;;;;;5027627;28;20033;-61
2023/01/18 10:19:49;;;;;;;4.20;2.47;;;2.90;80.40;;;;;;5027567;28;20163;-59
2023/01/18 10:22:33;;;;;;;4.40;2.95;;;2.90;80.30;;;;;;5026443;28;20105;-59
2023/01/18 10:25:05;;;;;;;2.88;2.30;;;2.90;79.90;;;;;;5026707;28;20681;-58
2023/01/18 10:27:39;;;;;;;2.38;2.17;;;2.90;80.00;;;;;;5027301;28;20037;-60
2023/01/18 10:30:19;;;;;;;3.80;2.28;;;2.90;79.90;;;;;;5026664;28;20041;-61
2023/01/18 10:32:52;;;;;;;3.28;2.10;;;3.00;79.60;;;;;;5025989;28;24894;-61
2023/01/18 10:35:29;;;;;;;5.13;2.85;;;3.00;79.70;;;;;;5028857;28;20172;-59
2023/01/18 10:37:59;;;;;;;4.50;2.67;;;3.00;79.40;;;;;;5027773;28;20029;-58
2023/01/18 10:40:25;;;;;;;5.20;3.15;;;3.00;79.40;;;;;;5027239;28;20041;-60
2023/01/18 10:42:55;;;;;;;1.83;1.73;;;3.00;79.50;;;;;;5026881;28;20440;-58
2023/01/18 10:45:33;;;;;;;1.70;1.60;;;3.00;79.10;;;;;;5027031;28;20049;-60
2023/01/18 10:48:19;;;;;;;2.05;1.50;;;3.00;78.30;;;;;;5026903;28;20091;-60
2023/01/18 10:50:52;;;;;;;3.08;1.52;;;3.00;77.30;;;;;;5014731;28;20045;-58
2023/01/18 10:53:31;;;;;;;1.77;1.58;;;3.00;77.10;;;;;;5028358;28;20104;-60
2023/01/18 10:56:04;;;;;;;1.85;1.65;;;3.00;77.10;;;;;;5028085;28;20030;-59
2023/01/18 10:58:35;;;;;;;2.30;1.70;;;3.00;77.50;;;;;;5027674;28;20033;-61
2023/01/18 11:01:02;;;;;;;2.08;1.80;;;3.00;78.00;;;;;;5027872;28;20117;-59
2023/01/18 11:03:34;;;;;;;2.22;2.03;;;3.00;78.00;;;;;;5028169;28;20123;-61
2023/01/18 11:06:04;;;;;;;3.13;2.10;;;3.00;78.10;;;;;;5027596;28;20132;-62
2023/01/18 11:08:34;;;;;;;3.63;2.35;;;3.00;77.60;;;;;;5027184;28;20515;-61
2023/01/18 11:14:27;;;;;;;2.38;2.15;;;3.10;77.40;;;;;;5028071;28;20471;-62
2023/01/18 11:16:57;;;;;;;2.90;2.25;;;3.00;77.30;;;;;;5027280;28;20542;-61
2023/01/18 11:19:25;;;;;;;2.92;2.38;;;3.00;77.20;;;;;;5027303;28;20034;-61
2023/01/18 11:21:52;;;;;;;3.33;2.70;;;3.00;77.30;;;;;;5027385;28;20037;-61
2023/01/18 11:24:29;;;;;;;3.78;2.33;;;3.00;77.10;;;;;;5027511;28;20057;-61
2023/01/18 11:27:06;;;;;;;3.33;2.60;;;3.00;76.90;;;;;;5027160;28;20036;-60
2023/01/18 11:29:35;;;;;;;3.05;2.20;;;3.00;76.90;;;;;;5027218;28;20374;-61
2023/01/18 11:32:08;;;;;;;2.83;2.45;;;3.00;76.90;;;;;;5026602;28;20045;-61
2023/01/18 11:34:40;;;;;;;4.28;3.00;;;3.00;76.80;;;;;;5026900;28;20037;-60
2023/01/18 11:37:25;;;;;;;2.60;2.38;;;3.00;77.10;;;;;;5025431;28;20029;-61
2023/01/18 11:39:51;;;;;;;2.90;2.28;;;2.90;76.20;;;;;;5025116;28;20029;-60
2023/01/18 11:42:21;;;;;;;3.05;2.30;;;2.90;76.40;;;;;;5026436;28;20449;-62
2023/01/18 11:45:13;;;;;;;2.88;2.42;;;2.90;76.60;;;;;;5025493;28;20128;-61
2023/01/18 11:47:49;;;;;;;3.33;2.42;;;2.90;76.60;;;;;;5026704;28;20045;-60
2023/01/18 11:50:34;;;;;;;3.25;2.70;;;2.90;76.70;;;;;;5026948;28;20041;-61
2023/01/18 11:53:33;;;;;;;4.03;2.60;;;2.90;76.80;;;;;;5026069;28;20091;-60
2023/01/18 11:56:10;;;;;;;2.88;2.35;;;2.90;76.20;;;;;;5026104;28;20036;-62
2023/01/18 11:58:36;;;;;;;6.38;3.47;;;2.90;76.20;;;;;;5023103;28;20029;-61
2023/01/18 12:01:26;;;;;;;6.18;3.38;;;2.90;76.60;;;;;;5025483;28;20063;-60
2023/01/18 12:04:01;;;;;;;4.00;3.00;;;2.90;76.70;;;;;;5025600;28;20508;-61
2023/01/18 12:06:46;;;;;;;3.92;3.13;;;2.90;77.00;;;;;;5025811;28;20556;-60
2023/01/18 12:09:11;;;;;;;2.50;2.00;;;2.80;76.40;;;;;;5026607;28;20116;-61
2023/01/18 12:11:41;;;;;;;3.58;2.60;;;2.90;76.40;;;;;;5022030;28;20631;-60
2023/01/18 12:14:19;;;;;;;4.32;2.75;;;2.90;76.40;;;;;;5024963;28;20514;-60
2023/01/18 12:17:19;;;;;;;3.75;2.47;;;2.80;76.50;;;;;;5025450;28;20064;-59
2023/01/18 12:20:10;;;;;;;3.97;2.70;;;2.80;76.40;;;;;;5025415;28;20034;-62
2023/01/18 12:23:12;;;;;;;3.28;2.67;;;2.80;76.00;;;;;;5025058;28;20042;-59
2023/01/18 12:25:37;;;;;;;4.00;2.70;;;2.80;76.40;;;;;;5025871;28;20128;-62
2023/01/18 12:28:24;;;;;;;3.35;2.88;;;2.80;76.40;;;;;;5024739;28;20615;-61
2023/01/18 12:31:08;;;;;;;2.90;2.60;;;2.70;76.60;;;;;;5024492;28;20465;-60
2023/01/18 12:33:57;;;;;;;2.97;2.42;;;2.70;76.60;;;;;;5024355;28;20592;-59
2023/01/18 12:36:43;;;;;;;2.60;2.00;;;2.70;76.60;;;;;;5025270;28;20045;-62
2023/01/18 12:39:27;;;;;;;3.92;2.20;;;2.70;76.20;;;;;;5029166;28;20029;-60
2023/01/18 12:42:07;;;;;;;2.60;1.88;;;2.70;76.00;;;;;;5029341;28;20543;-60
2023/01/18 12:44:36;;;;;;;3.03;2.08;;;2.70;76.40;;;;;;5028151;28;20100;-61
2023/01/18 12:47:20;;;;;;;2.28;1.95;;;2.70;75.90;;;;;;5029434;28;20085;-62
2023/01/18 12:49:51;;;;;;;7.65;3.38;;;2.70;75.70;;;;;;5029333;28;20080;-60
2023/01/18 12:52:20;;;;;;;2.72;2.03;;;2.70;75.50;;;;;;5031000;28;20025;-61
2023/01/18 12:54:59;;;;;;;2.42;2.00;;;2.80;75.90;;;;;;5029761;28;20492;-61
2023/01/18 12:57:25;;;;;;;2.95;1.90;;;2.80;75.40;;;;;;5031102;28;20033;-62
2023/01/18 13:00:01;;;;;;;3.15;2.38;;;2.80;75.60;;;;;;5030294;28;20042;-61
2023/01/18 13:02:37;;;;;;;3.72;2.67;;;2.80;75.70;;;;;;5030287;28;20052;-62
2023/01/18 13:05:32;;;;;;;4.05;2.97;;;2.80;75.90;;;;;;5030270;28;20042;-62
2023/01/18 13:08:05;;;;;;;3.90;2.40;;;2.80;75.00;;;;;;5029441;28;20041;-61
2023/01/18 13:10:31;;;;;;;4.05;3.10;;;2.80;75.20;;;;;;5026167;28;20045;-62
2023/01/18 13:12:57;;;;;;;7.30;4.82;;;2.90;75.50;;;;;;5030282;28;20044;-61
2023/01/18 13:15:40;;;;;;;7.57;4.47;;;2.80;75.70;;;;;;5030259;28;20060;-63
2023/01/18 13:18:20;;;;;;;6.72;3.30;;;2.80;75.70;;;;;;5030285;28;20475;-63
2023/01/18 13:21:12;;;;;;;4.38;2.60;;;2.80;75.50;;;;;;5028869;28;20489;-62
2023/01/18 13:23:44;;;;;;;4.75;3.38;;;2.80;75.20;;;;;;5030164;28;20392;-62
2023/01/18 13:26:30;;;;;;;5.70;3.30;;;2.80;75.40;;;;;;5030145;28;20037;-62
2023/01/18 13:29:05;;;;;;;5.82;3.53;;;2.80;74.60;;;;;;5029348;28;20470;-63
2023/01/18 13:31:31;;;;;;;6.88;3.40;;;2.80;74.70;;;;;;5029328;28;20033;-60
2023/01/18 13:33:57;;;;;;;6.90;4.25;;;2.80;75.00;;;;;;5029416;28;20037;-61
2023/01/18 13:36:23;;;;;;;3.95;3.00;;;2.80;75.20;;;;;;5030014;28;20083;-62
2023/01/18 13:39:05;;;;;;;6.60;3.22;;;2.80;75.10;;;;;;5027386;28;20039;-62
2023/01/18 13:41:31;;;;;;;5.38;3.33;;;2.80;74.80;;;;;;5029136;28;20041;-62
2023/01/18 13:43:57;;;;;;;5.93;3.20;;;2.80;75.00;;;;;;5029261;28;20542;-62